Kezdőlap
METAR-TAF:

METAR-TAF

Repülőterek :

légibázis

Tulln an der Donau, Ausztria

földrajzi szélesség: 48-19N, földrajzi hosszúság: 016-07E, magasság: 175 m

METAR: hiányzik

Idő: 11:17 (09:17 UTC)

Előrejelzés

A jelentés 1 órával és 2 perccel ezelõtt készült, 08:15 UTC
Az előrejelzés 17-én 09 óra UTC és 17-én 18 óra UTC között érvényes
Nyugat-északnyugati szél 10 kt
Látótávolság 10 km, vagy több
Szórványos felhőzet 3000 lábon
Szakadozott felhőzet 4000 lábon
Valószínűség 40% :
17-én 10 óra UTC és 17-én 18 óra UTC között ideiglenes
Látótávolság: 7000 m
Kevés felhő 3000 lábon, Tornyos gomolyfelhő.
Szakadozott felhőzet 3500 lábon
záporok,

TAF: LOXT 170815Z 1709/1718 29010KT 9999 SCT030 BKN040 PROB40 TEMPO 1710/1718 7000 SHRA FEW030TCU BKN035

Meteorológiai megfigyelések és előrejelzések több, mint 4000 repülőtéren (METAR és TAF jelentéseket).

A térképen piros és sárga pontok jelzik az elérhető meteorológiai állomásokat.

Mozgassa az egeret a pont fölött, hogy megjelenjen az állomás neve.

Azután kattintson az időjárási megfigyelések és előrejelzések megtekintéséhez.

A térkép megváltoztatása: kattintson a fekete keresztel jelölt zöld gombra ráközelítéshez, a vonallal jelölt zöld gombra távolításhoz, vagy a zöld nyilakra a szomszédos térképek eléréséhez.


METAR-TAF: